createdAt,value
2023-01-24T00:01:13.137Z,9.65
2023-01-24T00:03:40.063Z,8.45
2023-01-24T00:06:07.453Z,9.40
2023-01-24T00:08:34.353Z,9.65
2023-01-24T00:11:07.860Z,7.18
2023-01-24T00:13:37.047Z,7.43
2023-01-24T00:16:07.930Z,9.88
2023-01-24T00:18:35.594Z,9.30
2023-01-24T00:21:15.505Z,7.50
2023-01-24T00:23:49.224Z,9.35
2023-01-24T00:26:17.825Z,9.82
2023-01-24T00:28:47.974Z,8.35
2023-01-24T00:31:15.744Z,9.90
2023-01-24T00:33:43.075Z,10.70
2023-01-24T00:36:10.938Z,8.52
2023-01-24T00:38:37.898Z,7.65
2023-01-24T00:41:05.173Z,9.88
2023-01-24T00:43:32.003Z,8.68
2023-01-24T00:45:59.216Z,6.15
2023-01-24T00:48:26.488Z,9.65
2023-01-24T00:50:53.828Z,8.82
2023-01-24T00:53:20.819Z,10.35
2023-01-24T00:55:48.652Z,8.70
2023-01-24T00:58:16.145Z,9.70
2023-01-24T01:00:43.068Z,9.45
2023-01-24T01:03:20.498Z,9.73
2023-01-24T01:05:47.731Z,8.77
2023-01-24T01:08:14.964Z,7.68
2023-01-24T01:10:42.236Z,8.13
2023-01-24T01:13:13.409Z,8.80
2023-01-24T01:15:40.484Z,9.18
2023-01-24T01:18:07.490Z,8.43
2023-01-24T01:20:34.715Z,8.02
2023-01-24T01:23:01.739Z,8.20
2023-01-24T01:25:28.625Z,8.68
2023-01-24T01:27:55.694Z,8.77
2023-01-24T01:30:22.810Z,7.50
2023-01-24T01:32:49.658Z,8.65
2023-01-24T01:35:16.548Z,7.13
2023-01-24T01:37:43.341Z,8.65
2023-01-24T01:40:11.355Z,9.02
2023-01-24T01:42:55.715Z,7.32
2023-01-24T01:46:00.978Z,9.43
2023-01-24T01:48:52.133Z,8.20
2023-01-24T01:51:44.185Z,5.55
2023-01-24T01:54:29.037Z,10.23
2023-01-24T01:57:13.256Z,10.63
2023-01-24T01:59:48.955Z,10.27
2023-01-24T02:02:18.898Z,9.98
2023-01-24T02:04:54.067Z,10.43
2023-01-24T02:07:35.553Z,8.13
2023-01-24T02:10:04.997Z,8.68
2023-01-24T02:12:39.426Z,9.45
2023-01-24T02:15:32.007Z,10.18
2023-01-24T02:18:01.653Z,9.07
2023-01-24T02:20:42.504Z,8.65
2023-01-24T02:23:18.599Z,9.68
2023-01-24T02:26:17.060Z,9.48
2023-01-24T02:29:00.723Z,8.20
2023-01-24T02:31:28.459Z,7.63
2023-01-24T02:33:55.916Z,10.77
2023-01-24T02:36:42.109Z,10.70
2023-01-24T02:39:19.608Z,11.43
2023-01-24T02:42:00.635Z,9.63
2023-01-24T02:44:43.147Z,11.05
2023-01-24T02:47:10.040Z,10.48
2023-01-24T02:49:36.859Z,10.30
2023-01-24T02:52:22.689Z,11.10
2023-01-24T02:54:49.710Z,7.00
2023-01-24T02:57:35.642Z,11.73
2023-01-24T03:00:07.607Z,9.82
2023-01-24T03:02:35.292Z,10.00
2023-01-24T03:05:02.339Z,10.30
2023-01-24T03:07:42.273Z,11.73
2023-01-24T03:10:18.402Z,11.70
2023-01-24T03:13:08.444Z,10.75
2023-01-24T03:15:54.360Z,11.10
2023-01-24T03:18:39.905Z,10.27
2023-01-24T03:21:25.813Z,9.65
2023-01-24T03:24:11.676Z,7.65
2023-01-24T03:26:56.970Z,10.25
2023-01-24T03:29:42.449Z,10.10
2023-01-24T03:32:27.902Z,12.20
2023-01-24T03:34:54.962Z,12.15
2023-01-24T03:37:45.068Z,9.07
2023-01-24T03:40:16.807Z,11.93
2023-01-24T03:42:49.343Z,11.82
2023-01-24T03:45:34.650Z,11.38
2023-01-24T03:48:13.677Z,12.23
2023-01-24T03:51:02.191Z,9.55
2023-01-24T03:53:34.901Z,11.77
2023-01-24T03:56:03.708Z,11.95
2023-01-24T03:58:38.689Z,9.40
2023-01-24T04:01:08.828Z,9.98
2023-01-24T04:03:57.011Z,12.02
2023-01-24T04:06:24.051Z,8.43
2023-01-24T04:08:51.766Z,8.73
2023-01-24T04:11:19.585Z,10.43
2023-01-24T04:13:50.865Z,9.45
2023-01-24T04:16:18.057Z,11.48
2023-01-24T04:18:50.684Z,9.38
2023-01-24T04:21:18.829Z,11.45
2023-01-24T04:23:45.716Z,10.02
2023-01-24T04:26:13.231Z,11.13
2023-01-24T04:28:40.085Z,10.85
2023-01-24T04:31:07.163Z,9.73
2023-01-24T04:33:56.715Z,10.38
2023-01-24T04:36:27.135Z,12.68
2023-01-24T04:38:56.802Z,10.25
2023-01-24T04:41:45.323Z,12.32
2023-01-24T04:44:12.408Z,11.85
2023-01-24T04:46:39.261Z,11.93
2023-01-24T04:49:06.604Z,9.00
2023-01-24T04:51:42.891Z,11.32
2023-01-24T04:54:13.077Z,9.50
2023-01-24T04:56:40.482Z,8.05
2023-01-24T04:59:08.040Z,11.13
2023-01-24T05:01:36.443Z,10.93
2023-01-24T05:04:13.822Z,11.07
2023-01-24T05:06:40.861Z,12.00
2023-01-24T05:09:08.162Z,12.68
2023-01-24T05:11:51.959Z,10.07
2023-01-24T05:14:18.830Z,11.90
2023-01-24T05:16:46.112Z,12.05
2023-01-24T05:19:13.039Z,12.05
2023-01-24T05:21:39.908Z,12.10
2023-01-24T05:24:07.467Z,11.60
2023-01-24T05:26:34.672Z,11.18
2023-01-24T05:29:02.016Z,11.98
2023-01-24T05:31:30.440Z,9.48
2023-01-24T05:33:58.585Z,9.48
2023-01-24T05:36:26.275Z,11.38
2023-01-24T05:38:53.556Z,11.32
2023-01-24T05:41:22.010Z,10.23
2023-01-24T05:43:52.052Z,12.88
2023-01-24T05:46:24.502Z,11.98
2023-01-24T05:49:21.120Z,8.05
2023-01-24T05:51:49.392Z,11.52
2023-01-24T05:54:25.489Z,13.02
2023-01-24T05:56:58.848Z,10.63
2023-01-24T05:59:30.244Z,10.68
2023-01-24T06:01:58.745Z,12.95
2023-01-24T06:04:25.869Z,12.73
2023-01-24T06:06:52.738Z,12.98
2023-01-24T06:09:19.643Z,9.18
2023-01-24T06:11:46.819Z,11.88
2023-01-24T06:14:18.621Z,12.63
2023-01-24T06:16:47.530Z,11.23
2023-01-24T06:19:16.400Z,12.00
2023-01-24T06:22:09.579Z,13.55
2023-01-24T06:24:37.923Z,11.18
2023-01-24T06:27:37.531Z,12.43
2023-01-24T06:30:05.301Z,9.90
2023-01-24T06:32:53.593Z,13.15
2023-01-24T06:35:48.482Z,9.57
2023-01-24T06:38:25.260Z,10.75
2023-01-24T06:41:02.725Z,10.90
2023-01-24T06:43:30.408Z,13.23
2023-01-24T06:45:57.406Z,11.52
2023-01-24T06:48:24.357Z,11.48
2023-01-24T06:50:51.276Z,13.38
2023-01-24T06:53:18.100Z,11.45
2023-01-24T06:55:48.112Z,11.75
2023-01-24T06:58:15.101Z,10.05
2023-01-24T07:00:42.042Z,10.00
2023-01-24T07:03:10.101Z,12.05
2023-01-24T07:05:40.384Z,11.00
2023-01-24T07:08:07.591Z,12.52
2023-01-24T07:10:34.857Z,9.30
2023-01-24T07:13:01.957Z,8.25
2023-01-24T07:15:28.882Z,12.00
2023-01-24T07:17:56.174Z,13.90
2023-01-24T07:20:23.262Z,13.40
2023-01-24T07:22:50.500Z,13.82
2023-01-24T07:25:21.926Z,13.30
2023-01-24T07:27:49.435Z,12.57
2023-01-24T07:30:16.727Z,13.98
2023-01-24T07:32:43.825Z,9.63
2023-01-24T07:35:11.273Z,11.60
2023-01-24T07:37:38.532Z,14.05
2023-01-24T07:40:06.567Z,14.15
2023-01-24T07:42:33.380Z,14.18
2023-01-24T07:45:02.797Z,14.52
2023-01-24T07:47:30.545Z,12.82
2023-01-24T07:49:57.994Z,13.88
2023-01-24T07:52:24.976Z,11.68
2023-01-24T07:54:51.919Z,10.68
2023-01-24T07:57:18.768Z,9.73
2023-01-24T07:59:45.844Z,14.20
2023-01-24T08:02:13.802Z,12.55
2023-01-24T08:04:40.799Z,10.95
2023-01-24T08:07:21.103Z,8.57
2023-01-24T08:09:52.281Z,10.45
2023-01-24T08:12:21.263Z,11.70
2023-01-24T08:14:48.152Z,13.05
2023-01-24T08:17:15.201Z,12.65
2023-01-24T08:19:58.234Z,14.05
2023-01-24T08:22:26.639Z,7.30
2023-01-24T08:24:53.749Z,9.20
2023-01-24T08:27:20.664Z,14.35
2023-01-24T08:29:47.529Z,9.77
2023-01-24T08:32:14.468Z,11.05
2023-01-24T08:34:41.353Z,12.45
2023-01-24T08:37:08.267Z,11.55
2023-01-24T08:39:35.131Z,11.45
2023-01-24T08:42:02.010Z,12.20
2023-01-24T08:44:28.849Z,11.68
2023-01-24T08:46:55.692Z,11.15
2023-01-24T08:49:22.699Z,12.25
2023-01-24T08:51:49.583Z,10.38
2023-01-24T08:54:16.459Z,10.63
2023-01-24T08:56:43.434Z,12.73
2023-01-24T08:59:10.432Z,11.85
2023-01-24T09:01:37.260Z,12.20
2023-01-24T09:04:05.924Z,10.43
2023-01-24T09:06:33.068Z,11.60
2023-01-24T09:08:59.946Z,12.00
2023-01-24T09:11:27.102Z,10.10
2023-01-24T09:13:53.900Z,11.10
2023-01-24T09:16:20.896Z,11.52
2023-01-24T09:18:47.873Z,13.10
2023-01-24T09:21:14.817Z,12.55
2023-01-24T09:23:42.379Z,13.30
2023-01-24T09:26:09.557Z,9.65
2023-01-24T09:28:37.727Z,11.57
2023-01-24T09:31:09.530Z,11.38
2023-01-24T09:33:44.769Z,9.88
2023-01-24T09:36:17.376Z,8.95
2023-01-24T09:38:56.453Z,10.60
2023-01-24T09:42:12.036Z,9.80
2023-01-24T09:45:08.457Z,9.82
2023-01-24T09:47:45.683Z,8.70
2023-01-24T09:50:28.606Z,10.90
2023-01-24T09:52:59.813Z,10.73
2023-01-24T09:55:31.168Z,8.82
2023-01-24T09:58:05.490Z,7.45
2023-01-24T10:00:40.382Z,9.25
2023-01-24T10:03:21.069Z,11.23
2023-01-24T10:05:55.797Z,7.82
2023-01-24T10:08:51.479Z,9.20
2023-01-24T10:11:56.500Z,11.43
2023-01-24T10:14:41.468Z,9.75
2023-01-24T10:17:30.463Z,8.80
2023-01-24T10:20:18.301Z,10.27
2023-01-24T10:23:18.955Z,11.05
2023-01-24T10:26:19.849Z,11.40
2023-01-24T10:28:52.449Z,8.13
2023-01-24T10:31:35.762Z,11.13
2023-01-24T10:34:20.916Z,9.45
2023-01-24T10:36:59.007Z,7.40
2023-01-24T10:39:27.267Z,6.85
2023-01-24T10:41:55.235Z,8.48
2023-01-24T10:44:30.615Z,8.73
2023-01-24T10:47:13.032Z,11.20
2023-01-24T10:49:48.633Z,10.23
2023-01-24T10:52:20.958Z,10.75
2023-01-24T10:55:01.343Z,10.00
2023-01-24T10:57:36.807Z,9.15
2023-01-24T11:00:16.977Z,8.55
2023-01-24T11:02:51.201Z,8.75
2023-01-24T11:05:22.424Z,10.02
2023-01-24T11:07:52.697Z,10.45
2023-01-24T11:10:28.649Z,7.07
2023-01-24T11:12:59.325Z,8.68
2023-01-24T11:15:32.040Z,10.05
2023-01-24T11:18:06.450Z,8.07
2023-01-24T11:20:36.630Z,9.45
2023-01-24T11:23:32.922Z,9.93
2023-01-24T11:26:04.107Z,10.48
2023-01-24T11:28:39.502Z,11.02
2023-01-24T11:31:43.915Z,9.65
2023-01-24T11:34:50.920Z,9.45
2023-01-24T11:38:02.521Z,10.07
2023-01-24T11:40:45.356Z,7.00
2023-01-24T11:43:27.534Z,9.32
2023-01-24T11:46:34.423Z,10.00
2023-01-24T11:49:43.867Z,7.55
2023-01-24T11:52:58.130Z,5.30
2023-01-24T11:55:30.895Z,6.57
2023-01-24T11:58:40.939Z,7.63
2023-01-24T12:01:41.697Z,10.50
2023-01-24T12:04:33.288Z,9.90
2023-01-24T12:07:14.469Z,9.35
2023-01-24T12:10:12.771Z,6.63
2023-01-24T12:12:56.192Z,8.52
2023-01-24T12:15:38.962Z,8.52
2023-01-24T12:18:17.777Z,7.00
2023-01-24T12:23:47.291Z,11.60
2023-01-24T12:26:29.100Z,9.55
2023-01-24T12:29:25.853Z,7.82
2023-01-24T12:32:06.827Z,8.73
2023-01-24T12:34:45.549Z,7.05
2023-01-24T12:37:29.151Z,8.23
2023-01-24T12:40:13.663Z,9.80
2023-01-24T12:42:58.631Z,10.38
2023-01-24T12:45:44.323Z,10.55
2023-01-24T12:48:27.449Z,8.50
2023-01-24T12:51:14.682Z,7.35
2023-01-24T12:53:58.851Z,9.25
2023-01-24T12:56:34.567Z,8.43
2023-01-24T12:59:02.841Z,9.02
2023-01-24T13:02:18.766Z,9.05
2023-01-24T13:05:10.302Z,8.70
2023-01-24T13:07:42.955Z,10.30
2023-01-24T13:10:25.701Z,8.25
2023-01-24T13:12:55.462Z,9.93
2023-01-24T13:15:48.699Z,9.80
2023-01-24T13:18:41.433Z,10.05
2023-01-24T13:21:30.153Z,9.82
2023-01-24T13:24:13.977Z,9.18
2023-01-24T13:27:11.026Z,8.77
2023-01-24T13:29:58.747Z,8.18
2023-01-24T13:32:26.668Z,9.70
2023-01-24T13:34:59.309Z,9.68
2023-01-24T13:40:23.090Z,7.35
2023-01-24T13:42:49.967Z,9.77
2023-01-24T13:45:40.550Z,9.20
2023-01-24T13:48:41.782Z,8.10
2023-01-24T13:51:17.814Z,9.73
2023-01-24T13:54:02.681Z,7.45
2023-01-24T13:56:29.923Z,8.40
2023-01-24T13:58:58.473Z,9.95
2023-01-24T14:01:27.325Z,9.82
2023-01-24T14:04:04.620Z,10.70
2023-01-24T14:06:45.494Z,7.47
2023-01-24T14:09:28.914Z,9.00
2023-01-24T14:12:05.478Z,10.90
2023-01-24T14:14:36.713Z,10.73
2023-01-24T14:17:26.990Z,5.22
2023-01-24T14:19:57.229Z,10.32
2023-01-24T14:22:39.437Z,9.52
2023-01-24T14:25:39.097Z,7.75
2023-01-24T14:28:27.247Z,10.50
2023-01-24T14:31:00.516Z,9.55
2023-01-24T14:33:37.999Z,8.70
2023-01-24T14:36:27.246Z,5.03
2023-01-24T14:39:25.848Z,9.05
2023-01-24T14:42:03.428Z,9.98
2023-01-24T14:44:57.601Z,7.22
2023-01-24T14:47:29.667Z,10.05
2023-01-24T14:50:03.368Z,10.38
2023-01-24T14:52:35.843Z,10.77
2023-01-24T14:55:36.884Z,11.45
2023-01-24T14:58:29.784Z,9.90
2023-01-24T15:01:01.684Z,10.73
2023-01-24T15:03:36.317Z,11.52
2023-01-24T15:06:17.223Z,9.90
2023-01-24T15:08:44.432Z,9.70
2023-01-24T15:11:30.940Z,10.30
2023-01-24T15:14:18.036Z,10.63
2023-01-24T15:16:55.979Z,10.05
2023-01-24T15:19:28.007Z,9.30
2023-01-24T15:21:58.012Z,10.52
2023-01-24T15:24:32.106Z,10.07
2023-01-24T15:27:20.112Z,7.93
2023-01-24T15:29:51.084Z,10.40
2023-01-24T15:32:37.375Z,10.55
2023-01-24T15:35:31.931Z,9.38
2023-01-24T15:38:15.685Z,8.68
2023-01-24T15:41:13.019Z,9.27
2023-01-24T15:43:51.505Z,6.70
2023-01-24T15:46:51.979Z,8.18
2023-01-24T15:49:34.382Z,10.55
2023-01-24T15:52:08.061Z,10.13
2023-01-24T15:54:37.773Z,11.27
2023-01-24T15:57:20.320Z,8.48
2023-01-24T16:00:00.272Z,8.02
2023-01-24T16:02:28.070Z,7.72
2023-01-24T16:04:54.986Z,8.43
2023-01-24T16:07:22.175Z,10.02
2023-01-24T16:09:50.197Z,11.40
2023-01-24T16:12:21.051Z,8.45
2023-01-24T16:15:08.385Z,11.50
2023-01-24T16:17:36.432Z,9.38
2023-01-24T16:20:11.518Z,11.88
2023-01-24T16:22:38.440Z,11.20
2023-01-24T16:25:05.803Z,11.77
2023-01-24T16:27:33.311Z,11.68
2023-01-24T16:30:00.535Z,10.45
2023-01-24T16:32:29.524Z,12.32
2023-01-24T16:34:56.559Z,11.60
2023-01-24T16:37:23.785Z,10.30
2023-01-24T16:39:50.769Z,11.50
2023-01-24T16:42:19.779Z,10.00
2023-01-24T16:45:01.033Z,11.10
2023-01-24T16:47:29.312Z,11.60
2023-01-24T16:49:57.907Z,9.98
2023-01-24T16:52:27.136Z,10.32
2023-01-24T16:54:54.143Z,12.13
2023-01-24T16:57:21.163Z,11.93
2023-01-24T16:59:49.229Z,12.20
2023-01-24T17:02:17.080Z,12.65
2023-01-24T17:04:44.189Z,11.73
2023-01-24T17:07:11.111Z,12.45
2023-01-24T17:09:38.047Z,11.65
2023-01-24T17:12:14.103Z,12.38
2023-01-24T17:14:43.792Z,14.00
2023-01-24T17:17:11.295Z,13.13
2023-01-24T17:19:38.392Z,12.90
2023-01-24T17:22:06.693Z,11.65
2023-01-24T17:24:34.575Z,12.35
2023-01-24T17:27:01.638Z,13.43
2023-01-24T17:29:29.006Z,12.55
2023-01-24T17:31:57.547Z,11.48
2023-01-24T17:34:24.978Z,11.23
2023-01-24T17:36:52.807Z,10.55
2023-01-24T17:39:20.588Z,11.50
2023-01-24T17:41:47.453Z,10.63
2023-01-24T17:44:17.275Z,12.48
2023-01-24T17:46:44.854Z,11.32
2023-01-24T17:49:11.807Z,11.38
2023-01-24T17:51:39.163Z,11.93
2023-01-24T17:54:06.839Z,12.52
2023-01-24T17:56:33.868Z,9.82
2023-01-24T17:59:01.040Z,10.35
2023-01-24T18:01:28.243Z,11.88
2023-01-24T18:03:56.129Z,7.47
2023-01-24T18:06:23.450Z,11.55
2023-01-24T18:08:50.435Z,11.05
2023-01-24T18:11:19.865Z,10.00
2023-01-24T18:13:47.611Z,8.15
2023-01-24T18:16:20.859Z,7.65
2023-01-24T18:18:48.541Z,9.95
2023-01-24T18:21:22.780Z,10.82
2023-01-24T18:24:01.595Z,10.90
2023-01-24T18:29:00.425Z,10.73
2023-01-24T18:31:28.222Z,9.73
2023-01-24T18:34:00.375Z,11.48
2023-01-24T18:36:28.937Z,10.98
2023-01-24T18:38:56.792Z,11.82
2023-01-24T18:41:25.169Z,11.43
2023-01-24T18:43:52.010Z,12.55
2023-01-24T18:46:18.913Z,9.32
2023-01-24T18:48:45.944Z,10.95
2023-01-24T18:51:21.038Z,10.25
2023-01-24T18:53:52.600Z,7.32
2023-01-24T18:56:19.837Z,11.45
2023-01-24T18:58:47.683Z,12.30
2023-01-24T19:01:23.191Z,10.75
2023-01-24T19:03:51.226Z,12.52
2023-01-24T19:06:33.004Z,12.25
2023-01-24T19:09:04.336Z,12.48
2023-01-24T19:11:34.911Z,10.43
2023-01-24T19:14:03.227Z,13.52
2023-01-24T19:16:34.890Z,12.15
2023-01-24T19:19:01.830Z,12.15
2023-01-24T19:21:31.903Z,12.45
2023-01-24T19:24:00.169Z,13.07
2023-01-24T19:26:27.977Z,9.43
2023-01-24T19:28:57.616Z,12.93
2023-01-24T19:31:26.446Z,13.00
2023-01-24T19:33:54.720Z,10.25
2023-01-24T19:36:24.311Z,13.98
2023-01-24T19:38:57.667Z,13.40
2023-01-24T19:41:27.079Z,13.38
2023-01-24T19:46:42.396Z,13.25
2023-01-24T19:49:12.270Z,13.25
2023-01-24T19:51:39.507Z,11.25
2023-01-24T19:54:06.532Z,7.97
2023-01-24T19:56:36.299Z,12.32
2023-01-24T19:59:04.526Z,14.52
2023-01-24T20:01:31.605Z,8.27
2023-01-24T20:04:06.191Z,12.43
2023-01-24T20:06:42.076Z,11.40
2023-01-24T20:09:08.889Z,13.57
2023-01-24T20:11:35.887Z,12.70
2023-01-24T20:14:02.886Z,12.80
2023-01-24T20:16:31.287Z,14.88
2023-01-24T20:19:01.448Z,11.55
2023-01-24T20:21:32.175Z,15.88
2023-01-24T20:24:03.757Z,16.55
2023-01-24T20:26:31.541Z,12.88
2023-01-24T20:29:01.367Z,14.38
2023-01-24T20:31:28.773Z,13.90
2023-01-24T20:33:56.584Z,13.10
2023-01-24T20:36:23.528Z,14.27
2023-01-24T20:38:55.777Z,13.45
2023-01-24T20:41:24.296Z,13.60
2023-01-24T20:43:57.427Z,13.27
2023-01-24T20:46:29.010Z,14.32
2023-01-24T20:48:59.346Z,12.68
2023-01-24T20:51:29.362Z,12.05
2023-01-24T20:53:59.271Z,14.43
2023-01-24T20:56:28.785Z,15.05
2023-01-24T20:59:02.295Z,13.93
2023-01-24T21:01:30.566Z,14.20
2023-01-24T21:04:03.789Z,13.68
2023-01-24T21:06:35.546Z,13.27
2023-01-24T21:09:03.316Z,14.45
2023-01-24T21:11:33.247Z,13.65
2023-01-24T21:14:04.104Z,14.48
2023-01-24T21:16:34.857Z,14.52
2023-01-24T21:19:08.127Z,14.55
2023-01-24T21:21:37.220Z,15.13
2023-01-24T21:24:15.023Z,14.13
2023-01-24T21:26:48.040Z,14.60
2023-01-24T21:29:14.900Z,13.68
2023-01-24T21:31:41.901Z,13.20
2023-01-24T21:34:09.955Z,12.80
2023-01-24T21:36:37.843Z,15.35
2023-01-24T21:39:07.532Z,16.85
2023-01-24T21:41:53.145Z,10.32
2023-01-24T21:44:20.632Z,14.35
2023-01-24T21:46:48.954Z,15.18
2023-01-24T21:49:16.219Z,14.48
2023-01-24T21:51:48.589Z,15.50
2023-01-24T21:54:28.209Z,14.85
2023-01-24T21:57:32.466Z,16.02
2023-01-24T22:00:08.532Z,15.93
2023-01-24T22:02:42.567Z,13.43
2023-01-24T22:05:10.074Z,15.27
2023-01-24T22:07:37.170Z,10.93
2023-01-24T22:10:05.138Z,13.45
2023-01-24T22:12:36.594Z,16.13
2023-01-24T22:15:04.415Z,18.05
2023-01-24T22:17:39.464Z,12.68
2023-01-24T22:20:07.309Z,15.00
2023-01-24T22:23:19.282Z,16.73
2023-01-24T22:26:05.434Z,15.60
2023-01-24T22:28:32.649Z,17.92
2023-01-24T22:31:00.161Z,12.82
2023-01-24T22:33:27.395Z,12.52
2023-01-24T22:35:58.303Z,15.90
2023-01-24T22:38:27.201Z,16.80
2023-01-24T22:40:54.795Z,17.83
2023-01-24T22:43:21.806Z,10.73
2023-01-24T22:45:48.755Z,16.25
2023-01-24T22:48:17.001Z,18.50
2023-01-24T22:50:44.679Z,19.08
2023-01-24T22:53:12.823Z,18.38
2023-01-24T22:55:41.357Z,17.92
2023-01-24T22:58:08.559Z,19.63
2023-01-24T23:00:35.554Z,17.98
2023-01-24T23:03:02.414Z,20.35
2023-01-24T23:05:29.352Z,18.58
2023-01-24T23:07:56.524Z,19.38
2023-01-24T23:10:23.395Z,19.65
2023-01-24T23:13:08.691Z,18.92
2023-01-24T23:15:54.112Z,16.80
2023-01-24T23:18:44.837Z,19.13
2023-01-24T23:21:30.673Z,16.58
2023-01-24T23:23:57.958Z,20.60
2023-01-24T23:26:26.581Z,16.42
2023-01-24T23:29:21.896Z,18.98
2023-01-24T23:31:48.873Z,20.33
2023-01-24T23:34:36.678Z,19.90
2023-01-24T23:37:03.556Z,20.75
2023-01-24T23:39:30.476Z,20.77
2023-01-24T23:41:57.410Z,20.05
2023-01-24T23:44:24.456Z,21.30
2023-01-24T23:46:51.401Z,19.95
2023-01-24T23:49:18.204Z,19.38
2023-01-24T23:51:45.351Z,19.92
2023-01-24T23:54:12.382Z,22.38
2023-01-24T23:56:39.164Z,22.52
2023-01-24T23:59:05.960Z,22.58
